Time;durP1;ratioP1;P1;durP2;ratioP2;P2;SDS_P1;SDS_P2;PMS_P1;PMS_P2;Temp;Humidity;BMP_temperature;BMP_pressure;BME280_temperature;BME280_humidity;BME280_pressure;Samples;Min_cycle;Max_cycle;Signal;HPM_P1;HPM_P2
2021/11/26 00:01:17;;;;;;;10.05;6.40;;;9.30;99.90;;;;;;6184970;23;20100;-86
2021/11/26 00:13:05;;;;;;;9.82;6.63;;;9.30;99.90;;;;;;6184859;23;20071;-88
2021/11/26 00:18:19;;;;;;;9.23;6.78;;;9.30;99.90;;;;;;6158925;23;20150;-85
2021/11/26 00:20:50;;;;;;;9.38;6.60;;;9.30;99.90;;;;;;6134198;23;20123;-83
2021/11/26 00:23:17;;;;;;;11.52;6.72;;;9.30;99.90;;;;;;6158347;23;20088;-84
2021/11/26 00:25:45;;;;;;;10.10;6.32;;;9.20;99.90;;;;;;6184913;23;20041;-83
2021/11/26 00:28:12;;;;;;;9.63;6.93;;;9.30;99.90;;;;;;6134312;23;20028;-82
2021/11/26 00:30:40;;;;;;;9.25;6.90;;;9.30;99.90;;;;;;6133501;23;20025;-82
2021/11/26 00:33:10;;;;;;;9.98;6.85;;;9.20;99.90;;;;;;6134882;23;20027;-87
2021/11/26 00:35:40;;;;;;;9.57;7.18;;;9.20;99.90;;;;;;6135931;23;20021;-87
2021/11/26 00:48:08;;;;;;;9.70;6.60;;;9.20;99.90;;;;;;6141713;23;20416;-85
2021/11/26 00:50:36;;;;;;;12.27;7.20;;;9.10;99.90;;;;;;6154166;23;20092;-88
2021/11/26 00:53:05;;;;;;;12.73;7.10;;;9.20;99.90;;;;;;6105416;23;20017;-88
2021/11/26 00:55:46;;;;;;;10.07;6.30;;;9.10;99.90;;;;;;6156542;23;20308;-88
2021/11/26 00:58:13;;;;;;;10.45;6.70;;;9.00;99.90;;;;;;6130437;23;20094;-90
2021/11/26 01:00:51;;;;;;;8.60;6.13;;;9.10;99.90;;;;;;6107716;23;20020;-86
2021/11/26 01:19:55;;;;;;;8.82;6.65;;;9.00;99.90;;;;;;6159092;23;20402;-92
2021/11/26 01:22:42;;;;;;;9.73;6.07;;;9.00;99.90;;;;;;6140746;23;20407;-89
2021/11/26 01:25:11;;;;;;;9.55;6.40;;;9.10;99.90;;;;;;6112634;23;20584;-90
2021/11/26 01:27:55;;;;;;;13.45;7.03;;;9.10;99.90;;;;;;6132524;23;20324;-86
2021/11/26 01:31:35;;;;;;;8.45;6.45;;;9.10;99.90;;;;;;6114754;23;20052;-92
2021/11/26 01:34:04;;;;;;;12.30;7.10;;;9.00;99.90;;;;;;6112532;23;20021;-88
2021/11/26 01:36:33;;;;;;;10.15;7.10;;;9.10;99.90;;;;;;6110913;23;20032;-88
2021/11/26 01:39:03;;;;;;;9.65;6.95;;;9.00;99.90;;;;;;6139633;23;20511;-92
2021/11/26 01:41:53;;;;;;;9.50;7.00;;;9.00;99.90;;;;;;6118076;23;20025;-91
2021/11/26 01:52:58;;;;;;;9.90;7.13;;;9.00;99.90;;;;;;6102502;23;20014;-91
2021/11/26 01:55:55;;;;;;;11.10;7.03;;;9.10;99.90;;;;;;6114645;23;20744;-92
2021/11/26 01:59:17;;;;;;;15.23;8.23;;;9.10;99.90;;;;;;6111707;23;20022;-92
2021/11/26 02:01:45;;;;;;;9.10;6.35;;;9.00;99.90;;;;;;6116461;23;20020;-88
2021/11/26 02:08:00;;;;;;;10.40;7.25;;;9.00;99.90;;;;;;6141331;23;20024;-95
2021/11/26 02:11:00;;;;;;;9.90;7.38;;;9.00;99.90;;;;;;6141841;23;20071;-91
2021/11/26 02:33:20;;;;;;;11.63;7.53;;;9.00;99.90;;;;;;6124800;23;20096;-81
2021/11/26 02:35:51;;;;;;;14.07;9.23;;;8.90;99.90;;;;;;6103815;23;20629;-83
2021/11/26 02:38:22;;;;;;;12.20;7.55;;;8.80;99.90;;;;;;6128116;23;20104;-82
2021/11/26 02:41:53;;;;;;;11.52;7.10;;;8.70;99.90;;;;;;6157228;23;20052;-90
2021/11/26 02:44:22;;;;;;;10.93;7.30;;;9.00;99.90;;;;;;6159340;23;20014;-87
2021/11/26 02:46:52;;;;;;;12.23;7.65;;;8.90;99.90;;;;;;6132538;23;20028;-89
2021/11/26 02:49:30;;;;;;;10.63;7.30;;;9.00;99.90;;;;;;6132628;23;20021;-91
2021/11/26 02:52:00;;;;;;;13.50;7.70;;;9.00;99.90;;;;;;6108588;23;20021;-90
2021/11/26 02:54:45;;;;;;;9.05;7.10;;;9.00;99.90;;;;;;6042553;23;20022;-91
2021/11/26 02:57:42;;;;;;;13.18;7.40;;;9.00;99.90;;;;;;6145237;23;20017;-93
2021/11/26 03:01:03;;;;;;;9.27;6.53;;;9.00;99.90;;;;;;6157602;23;20359;-90
2021/11/26 03:03:30;;;;;;;11.35;7.38;;;9.00;99.90;;;;;;6153426;23;20022;-87
2021/11/26 03:06:30;;;;;;;11.52;8.25;;;9.00;99.90;;;;;;6154682;23;20029;-88
2021/11/26 03:16:18;;;;;;;11.55;7.53;;;9.00;99.90;;;;;;6102696;23;20058;-86
2021/11/26 03:18:50;;;;;;;11.40;8.18;;;8.90;99.90;;;;;;6076899;23;20332;-86
2021/11/26 03:21:32;;;;;;;11.85;8.23;;;8.90;99.90;;;;;;6125893;23;20104;-86
2021/11/26 03:24:24;;;;;;;12.10;7.88;;;8.80;99.90;;;;;;6077647;23;20018;-86
2021/11/26 03:26:52;;;;;;;11.57;7.97;;;8.90;99.90;;;;;;6098699;23;20036;-83
2021/11/26 03:29:19;;;;;;;13.00;7.22;;;8.90;99.90;;;;;;6098187;23;20042;-83
2021/11/26 03:31:47;;;;;;;10.35;7.20;;;8.80;99.90;;;;;;6100508;23;20086;-86
2021/11/26 03:34:14;;;;;;;11.23;7.35;;;8.90;99.90;;;;;;6078687;23;20105;-87
2021/11/26 03:36:54;;;;;;;10.13;7.25;;;8.90;99.90;;;;;;6127134;23;20026;-86
2021/11/26 03:48:37;;;;;;;11.52;7.22;;;8.70;99.90;;;;;;6128543;23;20463;-87
2021/11/26 03:51:14;;;;;;;9.73;7.07;;;8.80;99.90;;;;;;6077629;23;20026;-87
2021/11/26 03:54:36;;;;;;;9.70;7.30;;;8.80;99.90;;;;;;6072280;23;20120;-88
2021/11/26 03:57:03;;;;;;;10.75;7.22;;;8.80;99.90;;;;;;6074236;23;20037;-84
2021/11/26 03:59:55;;;;;;;10.25;7.75;;;8.80;99.90;;;;;;6100765;23;20029;-85
2021/11/26 04:02:24;;;;;;;12.43;7.13;;;8.70;99.90;;;;;;6076350;23;20025;-86
2021/11/26 04:04:51;;;;;;;8.82;6.75;;;8.80;99.90;;;;;;6105807;23;20331;-87
2021/11/26 04:07:24;;;;;;;12.32;6.88;;;8.80;99.90;;;;;;6105894;23;20080;-86
2021/11/26 04:13:27;;;;;;;9.45;7.10;;;8.80;99.90;;;;;;6126365;23;20399;-87
2021/11/26 04:16:01;;;;;;;9.18;6.93;;;8.70;99.90;;;;;;6076599;23;20018;-86
2021/11/26 04:18:33;;;;;;;9.80;5.97;;;8.70;99.90;;;;;;6078187;23;20046;-85
2021/11/26 04:21:32;;;;;;;9.45;6.47;;;8.60;99.90;;;;;;6084081;23;20014;-87
2021/11/26 04:24:05;;;;;;;7.68;6.32;;;8.70;99.90;;;;;;6099887;23;20025;-83
2021/11/26 04:26:34;;;;;;;8.18;6.13;;;8.70;99.90;;;;;;6125218;23;20013;-84
2021/11/26 04:29:02;;;;;;;8.05;6.07;;;8.60;99.90;;;;;;6126242;23;20100;-83
2021/11/26 04:31:40;;;;;;;9.68;6.03;;;8.60;99.90;;;;;;6101325;23;20019;-85
2021/11/26 04:34:16;;;;;;;;;;;8.80;99.90;;;;;;6100501;23;20080;-83
2021/11/26 04:36:44;;;;;;;7.15;5.47;;;8.70;99.90;;;;;;6125878;23;19987;-84
2021/11/26 04:39:20;;;;;;;8.68;5.88;;;8.60;99.90;;;;;;6100014;23;20081;-86
2021/11/26 04:41:51;;;;;;;8.73;5.65;;;8.80;99.90;;;;;;6100417;23;20619;-88
2021/11/26 04:44:18;;;;;;;8.77;5.80;;;8.60;99.90;;;;;;6125426;23;20021;-85
2021/11/26 04:46:45;;;;;;;7.68;5.60;;;8.70;99.90;;;;;;6075865;23;20053;-84
2021/11/26 04:49:21;;;;;;;6.93;5.53;;;8.60;99.90;;;;;;6125702;23;20041;-86
2021/11/26 04:51:49;;;;;;;9.27;5.63;;;8.60;99.90;;;;;;6125987;23;20053;-86
2021/11/26 04:54:16;;;;;;;13.93;6.45;;;8.60;99.90;;;;;;6077779;23;20045;-87
2021/11/26 04:56:43;;;;;;;8.25;5.80;;;8.50;99.90;;;;;;6100487;23;20074;-86
2021/11/26 04:59:11;;;;;;;9.13;5.43;;;8.50;99.90;;;;;;6076946;23;20030;-86
2021/11/26 05:01:39;;;;;;;7.60;5.53;;;8.40;99.90;;;;;;6101020;23;20348;-84
2021/11/26 05:04:13;;;;;;;8.05;6.05;;;8.50;99.90;;;;;;6125987;23;20021;-84
2021/11/26 05:06:41;;;;;;;7.10;5.65;;;8.40;99.90;;;;;;6129149;23;20021;-83
2021/11/26 05:09:10;;;;;;;6.93;5.32;;;8.50;99.90;;;;;;6129080;23;20036;-86
2021/11/26 05:11:38;;;;;;;7.80;6.05;;;8.50;99.90;;;;;;6105095;23;20076;-84
2021/11/26 05:14:08;;;;;;;8.48;6.28;;;8.40;99.90;;;;;;6149987;23;20033;-86
2021/11/26 05:17:24;;;;;;;8.27;6.18;;;8.50;99.90;;;;;;6140041;23;20137;-85
2021/11/26 05:36:59;;;;;;;8.88;6.00;;;8.50;99.90;;;;;;6034992;23;20019;-85
2021/11/26 05:39:26;;;;;;;6.85;5.45;;;8.50;99.90;;;;;;6074438;23;20608;-85
2021/11/26 05:41:54;;;;;;;8.85;6.20;;;8.40;99.90;;;;;;6128930;23;20052;-83
2021/11/26 05:44:21;;;;;;;8.13;6.70;;;8.50;99.90;;;;;;6153970;23;20021;-81
2021/11/26 05:46:48;;;;;;;42.28;24.27;;;8.60;99.90;;;;;;6154593;23;20017;-84
2021/11/26 05:49:27;;;;;;;19.98;12.50;;;8.90;99.90;;;;;;6130152;23;20045;-88
2021/11/26 05:51:59;;;;;;;7.55;6.13;;;9.00;99.90;;;;;;6128923;23;20022;-81
2021/11/26 05:54:27;;;;;;;6.93;5.32;;;8.60;99.90;;;;;;6154766;23;20352;-81
2021/11/26 05:56:57;;;;;;;13.35;8.75;;;8.60;99.90;;;;;;6127359;23;20044;-87
2021/11/26 05:59:33;;;;;;;16.02;10.30;;;8.40;99.90;;;;;;6130756;23;20412;-84
2021/11/26 06:02:14;;;;;;;39.50;23.95;;;8.70;99.90;;;;;;6108354;23;20026;-82
2021/11/26 06:04:42;;;;;;;8.63;5.93;;;8.60;99.90;;;;;;6128912;23;20018;-87
2021/11/26 06:07:10;;;;;;;6.57;5.40;;;8.50;99.90;;;;;;6151629;23;20052;-83
2021/11/26 06:09:38;;;;;;;6.90;4.80;;;8.60;99.90;;;;;;6102420;23;20064;-91
2021/11/26 06:12:09;;;;;;;14.75;5.13;;;8.60;99.90;;;;;;6153460;23;20017;-82
2021/11/26 06:14:37;;;;;;;7.07;5.18;;;8.50;99.90;;;;;;6103163;23;20026;-80
2021/11/26 06:17:04;;;;;;;6.28;4.80;;;8.30;99.90;;;;;;6152265;23;20018;-79
2021/11/26 06:19:32;;;;;;;6.00;4.80;;;8.40;99.90;;;;;;6154068;23;20021;-81
2021/11/26 06:22:03;;;;;;;5.55;4.40;;;8.40;99.90;;;;;;6153452;23;20028;-79
2021/11/26 06:24:30;;;;;;;7.35;5.57;;;8.40;99.90;;;;;;6152307;23;20112;-83
2021/11/26 06:26:57;;;;;;;10.60;6.03;;;8.50;99.90;;;;;;6125669;23;20092;-80
2021/11/26 06:29:25;;;;;;;16.63;10.15;;;8.60;99.90;;;;;;6151594;23;20013;-81
2021/11/26 06:31:52;;;;;;;7.70;5.72;;;8.70;99.90;;;;;;6150739;23;20024;-79
2021/11/26 06:34:20;;;;;;;6.53;4.90;;;8.70;99.90;;;;;;6126078;23;20364;-83
2021/11/26 06:36:48;;;;;;;6.15;4.57;;;8.50;99.90;;;;;;6151756;23;20027;-80
2021/11/26 06:39:15;;;;;;;7.45;4.75;;;8.30;99.90;;;;;;6152130;23;20402;-81
2021/11/26 06:41:43;;;;;;;6.75;4.70;;;8.30;99.90;;;;;;6103343;23;20021;-81
2021/11/26 06:44:10;;;;;;;6.57;5.13;;;8.20;99.90;;;;;;6102596;23;20100;-81
2021/11/26 06:46:37;;;;;;;6.53;4.68;;;8.10;99.90;;;;;;6148044;23;20020;-82
2021/11/26 06:49:05;;;;;;;6.35;4.50;;;8.20;99.90;;;;;;6125530;23;20408;-81
2021/11/26 06:51:32;;;;;;;7.82;4.95;;;8.10;99.90;;;;;;6103094;23;20029;-82
2021/11/26 06:54:08;;;;;;;6.53;4.80;;;8.10;99.90;;;;;;6127016;23;20391;-80
2021/11/26 06:56:35;;;;;;;6.55;5.47;;;8.20;99.90;;;;;;6127290;23;20041;-80
2021/11/26 06:59:04;;;;;;;6.45;4.97;;;8.00;99.90;;;;;;6127708;23;20080;-80
2021/11/26 07:01:31;;;;;;;9.00;5.05;;;7.90;99.90;;;;;;6153094;23;20398;-80
2021/11/26 07:03:59;;;;;;;6.20;5.13;;;8.00;99.90;;;;;;6127499;23;20080;-83
2021/11/26 07:06:26;;;;;;;11.85;4.85;;;8.00;99.90;;;;;;6103184;23;20388;-83
2021/11/26 07:08:54;;;;;;;6.00;4.78;;;8.10;99.90;;;;;;6129954;23;20017;-87
2021/11/26 07:11:21;;;;;;;8.15;4.68;;;7.90;99.90;;;;;;6129244;23;20099;-82
2021/11/26 07:13:49;;;;;;;7.22;5.13;;;8.00;99.90;;;;;;6155030;23;20096;-80
2021/11/26 07:16:18;;;;;;;10.95;5.18;;;7.90;99.90;;;;;;6104472;23;20021;-80
2021/11/26 07:18:46;;;;;;;7.05;5.03;;;7.90;99.90;;;;;;6154026;23;20048;-80
2021/11/26 07:21:13;;;;;;;7.03;5.10;;;7.90;99.90;;;;;;6155177;23;20017;-81
2021/11/26 07:23:41;;;;;;;5.57;4.63;;;8.00;99.90;;;;;;6130043;23;20026;-80
2021/11/26 07:26:11;;;;;;;7.82;5.05;;;7.80;99.90;;;;;;6127558;23;20037;-82
2021/11/26 07:28:38;;;;;;;6.07;4.57;;;7.90;99.90;;;;;;6152736;23;20108;-82
2021/11/26 07:31:05;;;;;;;7.40;5.05;;;7.80;99.90;;;;;;6103189;23;20105;-83
2021/11/26 07:33:36;;;;;;;6.03;5.30;;;7.70;99.90;;;;;;6153422;23;20060;-80
2021/11/26 07:36:03;;;;;;;6.03;4.85;;;7.70;99.90;;;;;;6153660;23;20371;-83
2021/11/26 07:38:30;;;;;;;7.10;5.45;;;7.80;99.90;;;;;;6127425;23;20355;-80
2021/11/26 07:41:08;;;;;;;8.23;4.88;;;7.90;99.90;;;;;;6130481;23;20041;-84
2021/11/26 07:43:35;;;;;;;7.22;5.63;;;7.90;99.90;;;;;;6155254;23;20026;-83
2021/11/26 07:46:03;;;;;;;9.23;5.85;;;8.00;99.90;;;;;;6104541;23;20068;-82
2021/11/26 07:48:31;;;;;;;5.93;4.90;;;8.00;99.90;;;;;;6104720;23;20030;-81
2021/11/26 07:50:58;;;;;;;6.07;5.00;;;8.00;99.90;;;;;;6105023;23;20112;-83
2021/11/26 07:53:26;;;;;;;7.15;5.20;;;7.90;99.90;;;;;;6104696;23;20048;-83
2021/11/26 07:55:59;;;;;;;9.38;4.97;;;8.00;99.90;;;;;;6128958;23;20029;-83
2021/11/26 07:59:08;;;;;;;8.07;5.60;;;7.80;99.90;;;;;;6155336;23;20021;-83
2021/11/26 08:02:26;;;;;;;7.32;5.50;;;7.90;99.90;;;;;;6127553;23;20014;-84
2021/11/26 08:05:10;;;;;;;8.38;5.68;;;8.00;99.90;;;;;;6063959;23;20111;-81
2021/11/26 08:07:38;;;;;;;7.35;5.22;;;8.00;99.90;;;;;;6118944;23;20045;-83
2021/11/26 08:10:09;;;;;;;8.48;5.88;;;8.00;99.90;;;;;;6104047;23;20025;-81
2021/11/26 08:12:38;;;;;;;9.77;5.93;;;7.90;99.90;;;;;;6154395;23;20096;-82
2021/11/26 08:15:08;;;;;;;8.85;5.93;;;7.90;99.90;;;;;;6128507;23;20092;-82
2021/11/26 08:17:35;;;;;;;8.63;5.60;;;7.90;99.90;;;;;;6128630;23;20359;-82
2021/11/26 08:36:25;;;;;;;7.63;5.90;;;8.00;99.90;;;;;;6092916;23;20122;-82
2021/11/26 08:39:06;;;;;;;9.50;6.63;;;7.90;99.90;;;;;;6092751;23;20022;-82
2021/11/26 08:41:34;;;;;;;;;;;8.00;99.90;;;;;;6120756;23;20032;-84
2021/11/26 08:44:11;;;;;;;7.85;5.95;;;8.00;99.90;;;;;;6129015;23;19947;-83
2021/11/26 08:46:41;;;;;;;8.10;6.40;;;8.10;99.90;;;;;;6154582;23;20029;-83
2021/11/26 08:49:13;;;;;;;9.57;6.75;;;8.30;99.90;;;;;;6127859;23;20096;-81
2021/11/26 08:51:42;;;;;;;7.63;6.05;;;8.20;99.90;;;;;;6154837;23;20099;-85
2021/11/26 08:54:11;;;;;;;9.73;6.53;;;8.30;99.90;;;;;;6154958;23;20045;-84
2021/11/26 08:56:38;;;;;;;7.90;6.03;;;8.30;99.90;;;;;;6155021;23;20348;-83
2021/11/26 08:59:05;;;;;;;8.15;6.20;;;8.40;99.90;;;;;;6154519;23;20100;-85
2021/11/26 09:01:34;;;;;;;9.35;6.28;;;8.20;99.90;;;;;;6104336;23;20029;-86
2021/11/26 09:04:01;;;;;;;9.25;6.18;;;8.10;99.90;;;;;;6103862;23;20052;-85
2021/11/26 09:06:29;;;;;;;7.55;6.18;;;8.20;99.90;;;;;;6104414;23;20032;-83
2021/11/26 09:08:56;;;;;;;8.55;6.03;;;8.30;99.90;;;;;;6127618;23;20027;-83
2021/11/26 09:12:37;;;;;;;10.25;6.43;;;8.20;99.90;;;;;;6098170;23;20064;-83
2021/11/26 09:15:05;;;;;;;9.10;5.78;;;8.30;99.90;;;;;;6098176;23;20029;-83
2021/11/26 09:17:32;;;;;;;9.40;6.35;;;8.10;99.90;;;;;;6084854;23;20452;-83
2021/11/26 09:20:00;;;;;;;8.93;6.63;;;8.30;99.90;;;;;;6065167;23;20405;-83
2021/11/26 09:22:30;;;;;;;8.75;6.22;;;8.40;99.90;;;;;;6041704;23;20111;-85
2021/11/26 09:24:58;;;;;;;9.70;6.57;;;8.60;99.90;;;;;;6066979;23;20046;-85
2021/11/26 09:27:38;;;;;;;8.55;7.07;;;8.70;99.90;;;;;;6041463;23;20034;-87
2021/11/26 09:30:09;;;;;;;11.50;6.68;;;8.80;99.90;;;;;;6068091;23;20015;-83
2021/11/26 09:32:36;;;;;;;;;;;8.90;99.90;;;;;;6067045;23;20098;-81
2021/11/26 09:35:05;;;;;;;8.88;6.20;;;9.40;99.90;;;;;;6066157;23;19952;-82
2021/11/26 09:37:33;;;;;;;8.63;6.32;;;9.40;99.90;;;;;;6019201;23;20022;-89
2021/11/26 09:40:10;;;;;;;;;;;;;;;;;;;;;
2021/11/26 09:53:39;;;;;;;7.65;6.03;;;8.80;99.90;;;;;;6076216;23;20093;-87
2021/11/26 09:56:36;;;;;;;8.40;5.90;;;8.70;99.90;;;;;;6101998;23;20077;-89
2021/11/26 09:59:14;;;;;;;9.93;6.38;;;8.70;99.90;;;;;;6049571;23;20026;-91
2021/11/26 10:01:57;;;;;;;7.70;6.20;;;8.70;99.90;;;;;;6045292;23;20022;-85
2021/11/26 10:04:32;;;;;;;9.60;5.93;;;8.80;99.90;;;;;;6020023;23;20023;-85
2021/11/26 10:07:51;;;;;;;7.30;5.90;;;8.60;99.90;;;;;;6018588;23;20099;-84
2021/11/26 10:10:28;;;;;;;8.25;6.18;;;8.70;99.90;;;;;;6043408;23;20022;-87
2021/11/26 10:13:17;;;;;;;7.72;5.93;;;8.70;99.90;;;;;;6041904;23;20357;-87
2021/11/26 10:15:54;;;;;;;8.05;6.22;;;8.70;99.90;;;;;;6042217;23;20019;-84
2021/11/26 10:18:31;;;;;;;8.45;6.15;;;8.60;99.90;;;;;;6041240;23;20053;-83
2021/11/26 10:21:25;;;;;;;8.85;6.07;;;8.70;99.90;;;;;;6017137;23;20125;-86
2021/11/26 10:23:53;;;;;;;6.97;5.40;;;8.80;99.90;;;;;;6040834;23;20057;-83
2021/11/26 10:26:27;;;;;;;7.50;5.55;;;8.80;99.90;;;;;;6017266;23;20464;-83
2021/11/26 10:29:15;;;;;;;7.95;5.50;;;8.80;99.90;;;;;;6042027;23;20023;-84
2021/11/26 10:31:45;;;;;;;7.60;5.70;;;8.90;99.90;;;;;;6041641;23;20026;-86
2021/11/26 10:35:06;;;;;;;8.05;5.88;;;9.00;99.90;;;;;;6034604;23;20029;-83
2021/11/26 10:37:34;;;;;;;7.75;5.82;;;8.80;99.90;;;;;;6066031;23;20026;-84
2021/11/26 10:40:17;;;;;;;7.68;5.72;;;8.80;99.90;;;;;;6066696;23;20119;-86
2021/11/26 10:42:46;;;;;;;8.27;5.75;;;8.80;99.90;;;;;;6066048;23;20068;-83
2021/11/26 10:45:39;;;;;;;8.82;6.13;;;8.70;99.90;;;;;;6079949;23;20117;-87
2021/11/26 11:00:17;;;;;;;7.93;5.63;;;8.80;99.90;;;;;;6007635;23;20023;-85
2021/11/26 11:02:54;;;;;;;8.70;6.25;;;8.90;99.90;;;;;;5984102;23;20024;-84
2021/11/26 11:05:29;;;;;;;8.90;6.10;;;9.00;99.90;;;;;;6007328;23;20027;-85
2021/11/26 11:08:05;;;;;;;7.85;6.10;;;9.00;99.90;;;;;;5984047;23;20100;-86
2021/11/26 11:10:38;;;;;;;8.95;6.40;;;9.20;99.90;;;;;;5983762;23;20027;-84
2021/11/26 11:13:30;;;;;;;11.20;6.60;;;9.10;99.90;;;;;;6007439;23;20398;-86
2021/11/26 11:16:10;;;;;;;10.38;7.28;;;9.10;99.90;;;;;;6007020;23;20024;-89
2021/11/26 11:18:38;;;;;;;9.57;7.20;;;9.10;99.90;;;;;;5981858;23;20055;-79
2021/11/26 11:21:07;;;;;;;10.80;7.30;;;9.60;99.90;;;;;;6068917;23;20027;-80
2021/11/26 11:36:58;;;;;;;9.85;8.05;;;9.10;99.90;;;;;;6099206;23;20592;-93
2021/11/26 11:46:40;;;;;;;8.88;6.20;;;9.00;99.90;;;;;;6072687;23;20058;-85
2021/11/26 11:49:08;;;;;;;9.38;6.57;;;8.90;99.90;;;;;;6126261;23;20028;-83
2021/11/26 11:51:46;;;;;;;8.45;6.25;;;9.00;99.90;;;;;;6075166;23;20337;-85
2021/11/26 11:54:13;;;;;;;8.05;6.30;;;8.90;99.90;;;;;;6125282;23;20044;-86
2021/11/26 11:56:45;;;;;;;8.68;6.15;;;9.00;99.90;;;;;;6100419;23;20358;-88
2021/11/26 11:59:42;;;;;;;7.65;6.22;;;9.20;99.90;;;;;;6101635;23;20101;-87
2021/11/26 12:02:27;;;;;;;10.18;6.70;;;9.30;99.90;;;;;;6106377;23;20073;-88
2021/11/26 12:05:59;;;;;;;9.57;6.15;;;9.40;99.90;;;;;;6124239;23;20025;-85
2021/11/26 12:21:19;;;;;;;7.50;4.90;;;9.40;99.90;;;;;;6092997;23;20106;-88
2021/11/26 12:27:38;;;;;;;5.93;4.72;;;9.50;99.90;;;;;;6040649;23;20026;-89
2021/11/26 12:31:54;;;;;;;6.15;4.60;;;9.40;99.90;;;;;;6039642;23;20071;-86
2021/11/26 12:34:24;;;;;;;6.90;4.57;;;9.30;99.90;;;;;;6040469;23;20801;-89
2021/11/26 12:37:31;;;;;;;6.45;4.35;;;9.30;99.90;;;;;;6037420;23;20034;-82
2021/11/26 12:40:06;;;;;;;5.18;4.13;;;9.40;99.90;;;;;;6038165;23;20031;-87
2021/11/26 12:42:34;;;;;;;6.47;4.40;;;9.30;99.90;;;;;;6012774;23;20019;-84
2021/11/26 12:45:11;;;;;;;6.32;4.28;;;9.40;99.90;;;;;;5990392;23;20026;-83
2021/11/26 12:47:44;;;;;;;5.82;4.63;;;9.40;99.90;;;;;;6036903;23;20055;-85
2021/11/26 12:54:46;;;;;;;7.25;5.60;;;9.40;99.90;;;;;;6039116;23;20102;-88
2021/11/26 12:57:53;;;;;;;6.63;5.15;;;9.40;99.90;;;;;;5938582;24;20440;-86
2021/11/26 13:05:05;;;;;;;8.77;5.70;;;9.40;99.90;;;;;;6132757;23;20502;-84
2021/11/26 13:08:05;;;;;;;9.18;5.47;;;9.40;99.90;;;;;;6015418;23;20052;-87
2021/11/26 13:10:33;;;;;;;7.85;5.40;;;9.30;99.90;;;;;;6101047;23;20039;-85
2021/11/26 13:13:10;;;;;;;8.75;5.80;;;9.40;99.90;;;;;;6153775;23;20081;-88
2021/11/26 13:15:53;;;;;;;9.43;5.50;;;9.50;99.90;;;;;;6113479;23;20084;-88
2021/11/26 13:24:57;;;;;;;10.38;6.90;;;9.60;99.90;;;;;;6048366;23;20027;-93
2021/11/26 13:38:16;;;;;;;8.55;6.25;;;9.10;99.90;;;;;;6088427;23;20282;-92
2021/11/26 13:44:23;;;;;;;8.18;6.40;;;9.40;99.90;;;;;;6136008;23;20017;-87
2021/11/26 13:47:03;;;;;;;10.13;7.40;;;9.50;99.90;;;;;;6105120;23;20024;-85
2021/11/26 13:49:31;;;;;;;12.32;8.75;;;9.40;99.90;;;;;;6155954;23;20017;-86
2021/11/26 13:52:06;;;;;;;13.52;8.20;;;9.10;99.90;;;;;;6153874;23;20447;-83
2021/11/26 13:54:56;;;;;;;12.15;10.07;;;9.00;99.90;;;;;;6154531;23;20018;-84
2021/11/26 13:57:29;;;;;;;14.85;10.68;;;8.80;99.90;;;;;;6133156;23;20415;-83
2021/11/26 14:00:20;;;;;;;13.60;10.38;;;8.80;99.90;;;;;;6128095;23;20382;-87
2021/11/26 14:02:55;;;;;;;14.20;9.77;;;8.70;99.90;;;;;;6153554;23;20016;-81
2021/11/26 14:05:48;;;;;;;13.60;10.70;;;8.70;99.90;;;;;;6128483;23;20076;-81
2021/11/26 14:08:18;;;;;;;12.88;9.70;;;8.90;99.90;;;;;;6141044;23;20092;-91
2021/11/26 14:10:55;;;;;;;15.25;10.02;;;8.90;99.90;;;;;;6130167;23;20076;-86
2021/11/26 14:13:26;;;;;;;14.52;10.73;;;8.90;99.90;;;;;;6133323;23;20018;-86
2021/11/26 14:16:05;;;;;;;14.60;11.38;;;8.90;99.90;;;;;;6161373;23;20024;-86
2021/11/26 14:18:54;;;;;;;15.07;10.05;;;9.10;99.90;;;;;;6112960;23;20045;-91
2021/11/26 14:21:52;;;;;;;16.55;10.10;;;9.00;99.90;;;;;;6129666;23;20017;-89
2021/11/26 14:24:43;;;;;;;17.58;11.70;;;9.00;99.90;;;;;;6159891;23;20390;-85
2021/11/26 14:27:50;;;;;;;13.57;10.57;;;9.00;99.90;;;;;;6070622;23;20072;-85
2021/11/26 14:30:44;;;;;;;14.52;10.32;;;9.00;99.90;;;;;;6132253;23;20057;-86
2021/11/26 14:33:30;;;;;;;12.65;10.57;;;8.90;99.90;;;;;;6117945;23;20024;-85
2021/11/26 14:36:05;;;;;;;17.30;11.30;;;8.90;99.90;;;;;;6104078;23;20029;-85
2021/11/26 14:38:45;;;;;;;14.85;11.10;;;8.90;99.90;;;;;;6154234;23;20018;-84
2021/11/26 14:41:21;;;;;;;16.23;11.07;;;9.00;99.90;;;;;;6128564;23;20083;-84
2021/11/26 14:44:40;;;;;;;15.48;10.68;;;9.10;99.90;;;;;;6102026;23;20093;-86
2021/11/26 14:47:42;;;;;;;17.55;12.85;;;9.20;99.90;;;;;;6131824;23;20085;-90
2021/11/26 14:50:16;;;;;;;16.45;12.07;;;9.30;99.90;;;;;;6153351;23;20021;-88
2021/11/26 14:53:11;;;;;;;17.73;12.57;;;9.20;99.90;;;;;;6133554;23;20053;-90
2021/11/26 14:55:39;;;;;;;19.52;13.25;;;9.10;99.90;;;;;;6136422;23;20025;-94
2021/11/26 14:58:43;;;;;;;20.85;13.95;;;9.20;99.90;;;;;;6088525;23;20080;-92
2021/11/26 15:04:23;;;;;;;23.17;16.10;;;8.90;99.90;;;;;;6124470;23;20022;-85
2021/11/26 15:06:57;;;;;;;20.75;15.48;;;9.00;99.90;;;;;;6129801;23;20077;-84
2021/11/26 15:09:49;;;;;;;18.70;14.63;;;9.20;99.90;;;;;;6155726;23;20013;-84
2021/11/26 15:12:17;;;;;;;20.35;13.90;;;8.90;99.90;;;;;;6152369;23;20020;-86
2021/11/26 15:14:47;;;;;;;16.40;12.95;;;8.80;99.90;;;;;;6152001;23;20010;-83
2021/11/26 15:17:19;;;;;;;17.55;13.35;;;8.90;99.90;;;;;;6153893;23;20080;-82
2021/11/26 15:19:49;;;;;;;19.20;13.35;;;9.00;99.90;;;;;;6153500;23;20093;-82
2021/11/26 15:22:17;;;;;;;17.98;14.52;;;9.00;99.90;;;;;;6153746;23;20024;-82
2021/11/26 15:24:44;;;;;;;18.85;13.65;;;8.90;99.90;;;;;;6127656;23;20022;-82
2021/11/26 15:27:11;;;;;;;17.73;12.73;;;8.90;99.90;;;;;;6153927;23;20383;-84
2021/11/26 15:30:16;;;;;;;18.08;13.15;;;9.00;99.90;;;;;;6159796;23;20022;-91
2021/11/26 15:33:38;;;;;;;19.13;12.85;;;9.10;99.90;;;;;;6022092;23;20023;-88
2021/11/26 15:36:39;;;;;;;17.63;12.68;;;9.10;99.90;;;;;;5928389;24;20478;-89
2021/11/26 15:43:09;;;;;;;20.10;13.77;;;9.30;99.90;;;;;;6126061;23;20081;-91
2021/11/26 16:06:59;;;;;;;22.20;14.23;;;9.10;99.90;;;;;;6127287;23;20026;-87
2021/11/26 16:14:10;;;;;;;19.13;13.75;;;9.10;99.90;;;;;;6125605;23;20081;-89
2021/11/26 16:22:33;;;;;;;28.33;17.70;;;8.90;99.90;;;;;;6096000;23;1320804;-88
2021/11/26 16:33:21;;;;;;;;;;;8.90;99.90;;;;;;6134908;23;20022;-89
2021/11/26 16:39:30;;;;;;;19.95;14.20;;;8.90;99.90;;;;;;6132276;23;20017;-83
2021/11/26 16:41:58;;;;;;;21.80;14.43;;;8.80;99.90;;;;;;6127782;23;20084;-82
2021/11/26 16:44:41;;;;;;;20.75;15.95;;;9.20;99.90;;;;;;6129240;23;20633;-83
2021/11/26 16:47:17;;;;;;;163.05;82.85;;;9.30;99.90;;;;;;6131240;23;20308;-85
2021/11/26 16:49:45;;;;;;;37.05;26.15;;;9.50;99.90;;;;;;6106303;23;20017;-86
2021/11/26 16:52:13;;;;;;;24.08;17.83;;;9.30;99.90;;;;;;6130521;23;20027;-83
2021/11/26 16:54:48;;;;;;;23.00;16.10;;;9.40;99.90;;;;;;6131109;23;20028;-82
2021/11/26 16:58:16;;;;;;;21.45;15.00;;;9.20;99.90;;;;;;6146335;23;20273;-90
2021/11/26 17:05:12;;;;;;;22.92;14.35;;;8.70;99.90;;;;;;6145777;23;20856;-87
2021/11/26 17:07:42;;;;;;;18.30;13.80;;;8.60;99.90;;;;;;6129357;23;20375;-85
2021/11/26 17:10:26;;;;;;;17.73;13.02;;;8.70;99.90;;;;;;6043919;23;20022;-80
2021/11/26 17:12:53;;;;;;;18.80;13.38;;;8.80;99.90;;;;;;6063899;23;20027;-79
2021/11/26 17:15:21;;;;;;;20.50;13.75;;;9.00;99.90;;;;;;6063205;23;20026;-79
2021/11/26 17:17:54;;;;;;;17.70;14.18;;;9.20;99.90;;;;;;6063929;23;20050;-89
2021/11/26 17:20:23;;;;;;;19.95;13.63;;;9.30;99.90;;;;;;6042837;23;20561;-88
2021/11/26 17:22:50;;;;;;;20.33;13.40;;;9.10;99.90;;;;;;6042362;23;20023;-84
2021/11/26 17:28:42;;;;;;;19.27;14.32;;;8.90;99.90;;;;;;6157382;23;20101;-82
2021/11/26 17:31:13;;;;;;;22.23;13.50;;;9.00;99.90;;;;;;6127802;23;20049;-81
2021/11/26 17:33:41;;;;;;;26.45;16.50;;;9.50;99.90;;;;;;6153571;23;20025;-83
2021/11/26 17:36:09;;;;;;;23.27;15.88;;;9.40;99.90;;;;;;6103724;23;20374;-81
2021/11/26 17:38:55;;;;;;;19.73;13.88;;;9.60;99.90;;;;;;6128136;23;20091;-82
2021/11/26 17:41:23;;;;;;;37.55;23.30;;;9.30;99.90;;;;;;6155022;23;20439;-82
2021/11/26 17:43:52;;;;;;;20.83;15.93;;;9.30;99.90;;;;;;6155130;23;20020;-81
2021/11/26 17:46:40;;;;;;;19.10;13.88;;;9.20;99.90;;;;;;6134544;23;20170;-80
2021/11/26 17:49:08;;;;;;;19.95;14.95;;;9.30;99.90;;;;;;6158391;23;20036;-81
2021/11/26 17:51:52;;;;;;;21.13;14.63;;;9.20;99.90;;;;;;6133767;23;20020;-82
2021/11/26 17:54:19;;;;;;;19.73;13.85;;;9.20;99.90;;;;;;6104941;23;20032;-84
2021/11/26 17:56:47;;;;;;;19.65;13.70;;;9.20;99.90;;;;;;6128843;23;20017;-85
2021/11/26 17:59:14;;;;;;;21.20;15.00;;;9.10;99.90;;;;;;6154704;23;20037;-83
2021/11/26 18:01:41;;;;;;;23.45;15.25;;;9.30;99.90;;;;;;6128303;23;20100;-84
2021/11/26 18:04:11;;;;;;;23.13;16.10;;;9.20;99.90;;;;;;6129146;23;20514;-81
2021/11/26 18:06:39;;;;;;;19.00;13.20;;;9.20;99.90;;;;;;6128384;23;20021;-81
2021/11/26 18:09:07;;;;;;;19.15;13.40;;;9.10;99.90;;;;;;6128905;23;20022;-81
2021/11/26 18:11:51;;;;;;;19.42;13.65;;;9.20;99.90;;;;;;6129729;23;20045;-83
2021/11/26 18:14:18;;;;;;;21.77;14.55;;;9.20;99.90;;;;;;6128586;23;20015;-82